Time,TemperatureF,DewpointF,PressureIn,WindDirection,WindDirectionDegrees,WindSpeedMPH,WindSpeedGustMPH,Humidity,HourlyPrecipIn,Conditions,Clouds,dailyrainin,SoftwareType,DateUTC
2013-03-03 00:00:00,31.7,20.2,29.80,ENE,68,1.1,2.5,62,0.00,,,0.06,WUHU216HW,2013-03-03 05:00:00,
2013-03-03 00:05:00,31.7,20.2,29.80,NNW,338,0.2,1.3,62,0.00,,,0.00,WUHU216HW,2013-03-03 05:05:00,
2013-03-03 00:10:00,31.5,20.3,29.80,NNW,338,0.0,1.3,63,0.00,,,0.00,WUHU216HW,2013-03-03 05:10:00,
2013-03-03 00:15:00,31.3,20.2,29.80,North,0,0.4,0.9,63,0.00,,,0.00,WUHU216HW,2013-03-03 05:15:00,
2013-03-03 00:20:00,31.3,20.2,29.80,NW,315,0.2,1.1,63,0.00,,,0.00,WUHU216HW,2013-03-03 05:20:00,
2013-03-03 00:25:00,31.1,20.0,29.80,NNW,338,0.2,1.1,63,0.00,,,0.00,WUHU216HW,2013-03-03 05:25:00,
2013-03-03 00:30:00,31.0,19.8,29.79,NNE,23,1.1,1.6,63,0.00,,,0.00,WUHU216HW,2013-03-03 05:30:00,
2013-03-03 00:35:00,31.0,20.2,29.80,North,0,0.7,1.6,64,0.00,,,0.00,WUHU216HW,2013-03-03 05:35:00,
2013-03-03 00:40:00,31.0,20.2,29.80,North,0,0.2,2.5,64,0.00,,,0.00,WUHU216HW,2013-03-03 05:40:00,
2013-03-03 00:45:00,31.0,20.2,29.79,North,0,0.9,2.5,64,0.00,,,0.00,WUHU216HW,2013-03-03 05:45:00,
2013-03-03 00:50:00,31.0,20.2,29.79,NNE,23,2.9,2.9,64,0.00,,,0.00,WUHU216HW,2013-03-03 05:50:00,
2013-03-03 00:55:00,31.0,20.2,29.79,NNE,23,1.1,2.9,64,0.00,,,0.00,WUHU216HW,2013-03-03 05:55:00,
2013-03-03 01:00:00,30.8,20.0,29.79,NNW,338,0.9,2.0,64,0.00,,,0.00,WUHU216HW,2013-03-03 06:00:00,
2013-03-03 01:05:00,30.6,19.8,29.80,NW,315,0.2,1.3,64,0.00,,,0.00,WUHU216HW,2013-03-03 06:05:00,
2013-03-03 01:10:00,30.6,19.8,29.80,North,0,0.9,1.1,64,0.00,,,0.00,WUHU216HW,2013-03-03 06:10:00,
2013-03-03 01:15:00,30.4,19.6,29.80,North,0,0.4,1.3,64,0.00,,,0.00,WUHU216HW,2013-03-03 06:15:00,
2013-03-03 01:20:00,30.2,19.4,29.80,ENE,68,0.2,1.3,64,0.00,,,0.00,WUHU216HW,2013-03-03 06:20:00,
2013-03-03 01:25:00,30.1,19.6,29.80,NNE,23,0.4,2.2,65,0.00,,,0.00,WUHU216HW,2013-03-03 06:25:00,
2013-03-03 01:30:00,30.1,19.6,29.80,NNE,23,1.8,2.2,65,0.00,,,0.00,WUHU216HW,2013-03-03 06:30:00,
2013-03-03 01:35:00,30.1,19.6,29.80,NNE,23,0.4,1.8,65,0.00,,,0.00,WUHU216HW,2013-03-03 06:35:00,
2013-03-03 01:40:00,30.1,19.6,29.80,North,0,1.1,1.8,65,0.00,,,0.00,WUHU216HW,2013-03-03 06:40:00,
2013-03-03 01:45:00,29.9,19.8,29.80,North,0,0.2,2.5,66,0.00,,,0.00,WUHU216HW,2013-03-03 06:45:00,
2013-03-03 01:50:00,29.9,19.8,29.80,NNE,23,0.7,2.5,66,0.00,,,0.00,WUHU216HW,2013-03-03 06:50:00,
2013-03-03 01:55:00,29.9,19.8,29.80,North,0,0.0,2.0,66,0.00,,,0.00,WUHU216HW,2013-03-03 06:55:00,
2013-03-03 02:00:00,29.9,19.8,29.80,NNE,23,0.7,1.1,66,0.00,,,0.00,WUHU216HW,2013-03-03 07:00:00,
2013-03-03 02:05:00,29.7,19.7,29.80,NE,45,0.4,1.1,66,0.00,,,0.00,WUHU216HW,2013-03-03 07:05:00,
2013-03-03 02:10:00,29.7,19.7,29.80,NNE,23,1.1,2.0,66,0.00,,,0.00,WUHU216HW,2013-03-03 07:10:00,
2013-03-03 02:15:00,29.7,19.7,29.80,North,0,0.4,2.0,66,0.00,,,0.00,WUHU216HW,2013-03-03 07:15:00,
2013-03-03 02:20:00,29.7,19.4,29.80,NNE,23,0.4,2.5,65,0.00,,,0.00,WUHU216HW,2013-03-03 07:20:00,
2013-03-03 02:25:00,29.5,19.2,29.80,NNE,23,2.0,2.5,65,0.00,,,0.00,WUHU216HW,2013-03-03 07:25:00,
2013-03-03 02:30:00,29.5,19.2,29.80,NE,45,0.2,2.0,65,0.00,,,0.00,WUHU216HW,2013-03-03 07:30:00,
2013-03-03 02:35:00,29.5,19.2,29.79,NNW,338,0.2,3.6,65,0.00,,,0.00,WUHU216HW,2013-03-03 07:35:00,
2013-03-03 02:40:00,29.7,19.4,29.79,NNE,23,2.5,3.6,65,0.00,,,0.00,WUHU216HW,2013-03-03 07:40:00,
2013-03-03 02:45:00,29.7,19.0,29.79,NNE,23,0.2,2.9,64,0.00,,,0.00,WUHU216HW,2013-03-03 07:45:00,
2013-03-03 02:50:00,29.5,18.8,29.79,North,0,0.7,2.9,64,0.00,,,0.00,WUHU216HW,2013-03-03 07:50:00,
2013-03-03 02:55:00,29.5,18.8,29.79,NNE,23,1.3,1.8,64,0.00,,,0.00,WUHU216HW,2013-03-03 07:55:00,
2013-03-03 03:00:00,29.5,18.8,29.79,NE,45,0.4,1.8,64,0.00,,,0.00,WUHU216HW,2013-03-03 08:00:00,
2013-03-03 03:05:00,29.3,18.6,29.78,NE,45,4.7,4.7,64,0.00,,,0.00,WUHU216HW,2013-03-03 08:05:00,
2013-03-03 03:10:00,29.5,18.5,29.79,North,0,0.9,4.7,63,0.00,,,0.00,WUHU216HW,2013-03-03 08:10:00,
2013-03-03 03:15:00,29.5,18.5,29.78,NE,45,0.2,3.8,63,0.00,,,0.00,WUHU216HW,2013-03-03 08:15:00,
2013-03-03 03:20:00,29.5,18.5,29.78,NNE,23,0.7,2.2,63,0.00,,,0.00,WUHU216HW,2013-03-03 08:20:00,
2013-03-03 03:25:00,29.3,18.3,29.78,North,0,1.1,2.2,63,0.00,,,0.00,WUHU216HW,2013-03-03 08:25:00,
2013-03-03 03:30:00,29.3,18.3,29.79,NE,45,0.4,1.8,63,0.00,,,0.00,WUHU216HW,2013-03-03 08:30:00,
2013-03-03 03:35:00,29.2,17.7,29.78,North,0,0.4,1.8,62,0.00,,,0.00,WUHU216HW,2013-03-03 08:35:00,
2013-03-03 03:40:00,29.3,17.9,29.78,NE,45,0.4,2.7,62,0.00,,,0.00,WUHU216HW,2013-03-03 08:40:00,
2013-03-03 03:45:00,29.3,17.9,29.78,NE,45,0.9,2.7,62,0.00,,,0.00,WUHU216HW,2013-03-03 08:45:00,
2013-03-03 03:50:00,29.5,18.1,29.78,SW,225,0.7,4.9,62,0.00,,,0.00,WUHU216HW,2013-03-03 08:50:00,
2013-03-03 03:55:00,29.5,18.1,29.78,West,270,0.9,4.9,62,0.00,,,0.00,WUHU216HW,2013-03-03 08:55:00,
2013-03-03 04:00:00,29.5,18.1,29.78,NNW,338,0.9,2.2,62,0.00,,,0.00,WUHU216HW,2013-03-03 09:00:00,
2013-03-03 04:05:00,29.2,17.7,29.78,NNE,23,0.7,1.8,62,0.00,,,0.00,WUHU216HW,2013-03-03 09:05:00,
2013-03-03 04:10:00,29.2,17.7,29.78,NW,315,0.2,1.6,62,0.00,,,0.00,WUHU216HW,2013-03-03 09:10:00,
2013-03-03 04:15:00,29.0,17.6,29.78,NNW,338,0.0,0.7,62,0.00,,,0.00,WUHU216HW,2013-03-03 09:15:00,
2013-03-03 04:20:00,28.6,17.3,29.78,NNW,338,0.2,0.4,62,0.00,,,0.00,WUHU216HW,2013-03-03 09:20:00,
2013-03-03 04:25:00,28.4,17.1,29.78,NNW,338,0.0,0.4,62,0.00,,,0.00,WUHU216HW,2013-03-03 09:25:00,
2013-03-03 04:30:00,28.1,16.7,29.78,NNW,338,0.0,0.4,62,0.00,,,0.00,WUHU216HW,2013-03-03 09:30:00,
2013-03-03 04:35:00,27.9,16.6,29.78,NNW,338,0.0,0.0,62,0.00,,,0.00,WUHU216HW,2013-03-03 09:35:00,
2013-03-03 04:40:00,27.7,16.4,29.78,NNW,338,0.0,0.0,62,0.00,,,0.00,WUHU216HW,2013-03-03 09:40:00,
2013-03-03 04:45:00,27.7,16.4,29.78,NNW,338,0.0,0.0,62,0.00,,,0.00,WUHU216HW,2013-03-03 09:45:00,
2013-03-03 04:50:00,27.4,16.0,29.78,NNW,338,0.0,0.0,62,0.00,,,0.00,WUHU216HW,2013-03-03 09:50:00,
2013-03-03 04:55:00,26.8,15.5,29.78,NNW,338,0.0,0.0,62,0.00,,,0.00,WUHU216HW,2013-03-03 09:55:00,
2013-03-03 05:00:00,26.5,15.5,29.79,NNW,338,0.0,0.0,63,0.00,,,0.00,WUHU216HW,2013-03-03 10:00:00,
2013-03-03 05:05:00,26.1,15.1,29.79,NNW,338,0.0,0.7,63,0.00,,,0.00,WUHU216HW,2013-03-03 10:05:00,
2013-03-03 05:10:00,25.9,15.3,29.79,NNW,338,0.0,0.7,64,0.00,,,0.00,WUHU216HW,2013-03-03 10:10:00,
2013-03-03 05:15:00,25.6,15.0,29.79,NNW,338,0.0,0.4,64,0.00,,,0.00,WUHU216HW,2013-03-03 10:15:00,
2013-03-03 05:20:00,25.4,15.2,29.79,NNW,338,1.6,1.6,65,0.00,,,0.00,WUHU216HW,2013-03-03 10:20:00,
2013-03-03 05:25:00,25.4,15.6,29.80,NNW,338,0.0,1.6,66,0.00,,,0.00,WUHU216HW,2013-03-03 10:25:00,
2013-03-03 05:30:00,25.4,15.6,29.80,NNW,338,0.4,0.9,66,0.00,,,0.00,WUHU216HW,2013-03-03 10:30:00,
2013-03-03 05:35:00,25.2,15.7,29.80,NNW,338,0.0,0.4,67,0.00,,,0.00,WUHU216HW,2013-03-03 10:35:00,
2013-03-03 05:40:00,25.2,15.7,29.80,NNW,338,0.0,0.4,67,0.00,,,0.00,WUHU216HW,2013-03-03 10:40:00,
2013-03-03 05:45:00,25.2,15.7,29.80,NNW,338,0.0,0.4,67,0.00,,,0.00,WUHU216HW,2013-03-03 10:45:00,
2013-03-03 05:50:00,25.2,16.0,29.80,NNW,338,0.0,0.9,68,0.00,,,0.00,WUHU216HW,2013-03-03 10:50:00,
2013-03-03 05:55:00,25.6,16.4,29.80,NNW,338,0.7,0.9,68,0.00,,,0.00,WUHU216HW,2013-03-03 10:55:00,
2013-03-03 06:00:00,25.9,17.1,29.80,NNW,338,0.2,1.1,69,0.00,,,0.00,WUHU216HW,2013-03-03 11:00:00,
2013-03-03 06:05:00,26.3,17.5,29.80,NNW,338,0.7,1.6,69,0.00,,,0.00,WUHU216HW,2013-03-03 11:05:00,
2013-03-03 06:10:00,26.6,17.5,29.80,NNW,338,1.6,1.6,68,0.00,,,0.00,WUHU216HW,2013-03-03 11:10:00,
2013-03-03 06:15:00,26.8,17.6,29.80,NNW,338,0.0,1.6,68,0.00,,,0.00,WUHU216HW,2013-03-03 11:15:00,
2013-03-03 06:20:00,26.8,17.3,29.80,NNW,338,0.4,1.6,67,0.00,,,0.00,WUHU216HW,2013-03-03 11:20:00,
2013-03-03 06:25:00,26.8,17.3,29.80,NNW,338,0.7,1.8,67,0.00,,,0.00,WUHU216HW,2013-03-03 11:25:00,
2013-03-03 06:30:00,26.8,17.3,29.80,NNW,338,0.2,1.8,67,0.00,,,0.00,WUHU216HW,2013-03-03 11:30:00,
2013-03-03 06:35:00,26.6,16.7,29.80,NNW,338,0.4,1.1,66,0.00,,,0.00,WUHU216HW,2013-03-03 11:35:00,
2013-03-03 06:40:00,26.6,16.7,29.80,NNW,338,0.2,1.3,66,0.00,,,0.00,WUHU216HW,2013-03-03 11:40:00,
2013-03-03 06:45:00,26.6,16.7,29.81,NNW,338,1.3,1.3,66,0.00,,,0.00,WUHU216HW,2013-03-03 11:45:00,
2013-03-03 06:50:00,26.6,16.7,29.81,NNW,338,0.7,1.3,66,0.00,,,0.00,WUHU216HW,2013-03-03 11:50:00,
2013-03-03 06:55:00,26.3,16.4,29.81,NNW,338,0.4,1.6,66,0.00,,,0.00,WUHU216HW,2013-03-03 11:55:00,
2013-03-03 07:00:00,26.3,16.4,29.81,NNW,338,0.4,1.6,66,0.00,,,0.00,WUHU216HW,2013-03-03 12:00:00,
2013-03-03 07:05:00,26.5,16.6,29.81,NNW,338,0.2,1.3,66,0.00,,,0.00,WUHU216HW,2013-03-03 12:05:00,
2013-03-03 07:10:00,26.5,16.6,29.81,NNW,338,0.0,0.4,66,0.00,,,0.00,WUHU216HW,2013-03-03 12:10:00,
2013-03-03 07:15:00,26.3,16.0,29.81,NNW,338,0.0,0.4,65,0.00,,,0.00,WUHU216HW,2013-03-03 12:15:00,
2013-03-03 07:20:00,26.3,16.0,29.81,NNW,338,0.0,0.4,65,0.00,,,0.00,WUHU216HW,2013-03-03 12:20:00,
2013-03-03 07:25:00,26.3,16.0,29.81,NNW,338,0.0,0.4,65,0.00,,,0.00,WUHU216HW,2013-03-03 12:25:00,
2013-03-03 07:30:00,26.3,16.0,29.81,NNW,338,0.0,1.1,65,0.00,,,0.00,WUHU216HW,2013-03-03 12:30:00,
2013-03-03 07:35:00,26.5,16.2,29.82,NNW,338,0.4,1.1,65,0.00,,,0.00,WUHU216HW,2013-03-03 12:35:00,
2013-03-03 07:40:00,26.8,16.2,29.82,NNW,338,0.7,0.7,64,0.00,,,0.00,WUHU216HW,2013-03-03 12:40:00,
2013-03-03 07:45:00,27.0,16.4,29.82,NNW,338,0.2,1.1,64,0.00,,,0.00,WUHU216HW,2013-03-03 12:45:00,
2013-03-03 07:50:00,27.2,16.6,29.82,NNW,338,0.0,1.1,64,0.00,,,0.00,WUHU216HW,2013-03-03 12:50:00,
2013-03-03 07:55:00,27.2,16.6,29.83,NNW,338,0.0,0.4,64,0.00,,,0.00,WUHU216HW,2013-03-03 12:55:00,
2013-03-03 08:00:00,27.4,16.7,29.83,NNW,338,0.9,1.3,64,0.00,,,0.00,WUHU216HW,2013-03-03 13:00:00,
2013-03-03 08:05:00,27.7,17.1,29.83,NNW,338,1.3,1.3,64,0.00,,,0.00,WUHU216HW,2013-03-03 13:05:00,
2013-03-03 08:10:00,28.1,17.1,29.83,NNW,338,0.2,1.3,63,0.00,,,0.00,WUHU216HW,2013-03-03 13:10:00,
2013-03-03 08:15:00,28.4,17.5,29.83,NNW,338,0.7,1.3,63,0.00,,,0.00,WUHU216HW,2013-03-03 13:15:00,
2013-03-03 08:20:00,28.8,17.8,29.83,NNW,338,0.2,2.0,63,0.00,,,0.00,WUHU216HW,2013-03-03 13:20:00,
2013-03-03 08:25:00,29.2,18.1,29.83,NNW,338,0.4,2.0,63,0.00,,,0.00,WUHU216HW,2013-03-03 13:25:00,
2013-03-03 08:30:00,29.7,18.3,29.83,NNW,338,1.1,2.0,62,0.00,,,0.00,WUHU216HW,2013-03-03 13:30:00,
2013-03-03 08:35:00,30.1,17.8,29.83,NNW,338,2.5,4.0,60,0.00,,,0.00,WUHU216HW,2013-03-03 13:35:00,
2013-03-03 08:40:00,30.6,17.9,29.83,NNW,338,0.7,5.4,59,0.00,,,0.00,WUHU216HW,2013-03-03 13:40:00,
2013-03-03 08:45:00,30.8,18.1,29.83,NNW,338,0.9,5.4,59,0.00,,,0.00,WUHU216HW,2013-03-03 13:45:00,
2013-03-03 08:50:00,31.0,18.3,29.83,NNW,338,4.3,4.3,59,0.00,,,0.00,WUHU216HW,2013-03-03 13:50:00,
2013-03-03 08:55:00,31.1,17.7,29.83,NNW,338,2.7,6.0,57,0.00,,,0.00,WUHU216HW,2013-03-03 13:55:00,
2013-03-03 09:00:00,31.3,17.8,29.84,NNW,338,0.7,6.0,57,0.00,,,0.00,WUHU216HW,2013-03-03 14:00:00,
2013-03-03 09:05:00,31.7,17.7,29.84,NNW,338,1.3,4.7,56,0.00,,,0.00,WUHU216HW,2013-03-03 14:05:00,
2013-03-03 09:10:00,32.0,17.2,29.83,NNW,338,4.0,5.8,54,0.00,,,0.00,WUHU216HW,2013-03-03 14:10:00,
2013-03-03 09:15:00,32.0,17.2,29.83,NE,45,2.5,6.9,54,0.00,,,0.00,WUHU216HW,2013-03-03 14:15:00,
2013-03-03 09:20:00,32.4,16.7,29.83,North,0,1.3,8.5,52,0.00,,,0.00,WUHU216HW,2013-03-03 14:20:00,
2013-03-03 09:25:00,32.4,16.7,29.83,NE,45,4.0,8.5,52,0.00,,,0.00,WUHU216HW,2013-03-03 14:25:00,
2013-03-03 09:30:00,32.8,17.0,29.83,North,0,3.4,9.6,52,0.00,,,0.00,WUHU216HW,2013-03-03 14:30:00,
2013-03-03 09:35:00,33.3,17.5,29.83,NE,45,2.2,9.6,52,0.00,,,0.00,WUHU216HW,2013-03-03 14:35:00,
2013-03-03 09:40:00,33.5,17.6,29.83,WSW,248,0.9,5.1,52,0.00,,,0.00,WUHU216HW,2013-03-03 14:40:00,
2013-03-03 09:45:00,33.7,17.4,29.83,NNE,23,3.8,4.7,51,0.00,,,0.00,WUHU216HW,2013-03-03 14:45:00,
2013-03-03 09:50:00,34.0,17.3,29.83,NNE,23,4.0,5.8,50,0.00,,,0.00,WUHU216HW,2013-03-03 14:50:00,
2013-03-03 09:55:00,34.2,16.9,29.83,North,0,0.4,5.8,49,0.00,,,0.00,WUHU216HW,2013-03-03 14:55:00,
2013-03-03 10:00:00,34.6,17.8,29.83,North,0,0.9,5.1,50,0.00,,,0.00,WUHU216HW,2013-03-03 15:00:00,
2013-03-03 10:05:00,34.7,17.0,29.83,NE,45,4.5,6.3,48,0.00,,,0.00,WUHU216HW,2013-03-03 15:05:00,
2013-03-03 10:10:00,34.9,17.2,29.83,North,0,1.1,7.4,48,0.00,,,0.00,WUHU216HW,2013-03-03 15:10:00,
2013-03-03 10:15:00,34.9,16.1,29.83,NNE,23,2.9,7.6,46,0.00,,,0.00,WUHU216HW,2013-03-03 15:15:00,
2013-03-03 10:20:00,34.9,15.6,29.83,NNE,23,4.9,12.1,45,0.00,,,0.00,WUHU216HW,2013-03-03 15:20:00,
2013-03-03 10:25:00,34.9,16.1,29.83,NE,45,10.5,12.1,46,0.00,,,0.00,WUHU216HW,2013-03-03 15:25:00,
2013-03-03 10:30:00,35.3,16.5,29.83,ENE,68,4.0,10.5,46,0.00,,,0.00,WUHU216HW,2013-03-03 15:30:00,
2013-03-03 10:35:00,35.6,16.3,29.83,NE,45,6.3,10.3,45,0.00,,,0.00,WUHU216HW,2013-03-03 15:35:00,
2013-03-03 10:40:00,35.6,16.3,29.83,NE,45,5.4,7.6,45,0.00,,,0.00,WUHU216HW,2013-03-03 15:40:00,
2013-03-03 10:45:00,35.6,16.3,29.83,NE,45,4.3,9.6,45,0.00,,,0.00,WUHU216HW,2013-03-03 15:45:00,
2013-03-03 10:50:00,35.6,16.8,29.83,North,0,3.4,12.1,46,0.00,,,0.00,WUHU216HW,2013-03-03 15:50:00,
2013-03-03 10:55:00,36.0,16.7,29.83,SW,225,0.7,12.1,45,0.00,,,0.00,WUHU216HW,2013-03-03 15:55:00,
2013-03-03 11:00:00,36.4,17.5,29.82,NNE,23,2.0,6.9,46,0.00,,,0.00,WUHU216HW,2013-03-03 16:00:00,
2013-03-03 11:05:00,36.7,17.3,29.82,WSW,248,6.7,7.6,45,0.00,,,0.00,WUHU216HW,2013-03-03 16:05:00,
2013-03-03 11:10:00,37.1,17.6,29.83,North,0,3.8,8.3,45,0.00,,,0.00,WUHU216HW,2013-03-03 16:10:00,
2013-03-03 11:15:00,37.1,17.6,29.83,NNW,338,2.2,8.3,45,0.00,,,0.00,WUHU216HW,2013-03-03 16:15:00,
2013-03-03 11:20:00,37.3,17.7,29.82,NNW,338,2.7,6.5,45,0.00,,,0.00,WUHU216HW,2013-03-03 16:20:00,
2013-03-03 11:25:00,37.4,17.9,29.82,WSW,248,8.3,9.2,45,0.00,,,0.00,WUHU216HW,2013-03-03 16:25:00,
2013-03-03 11:30:00,37.3,17.7,29.82,WSW,248,6.7,9.6,45,0.00,,,0.00,WUHU216HW,2013-03-03 16:30:00,
2013-03-03 11:35:00,37.4,16.8,29.82,NNW,338,6.3,9.6,43,0.00,,,0.00,WUHU216HW,2013-03-03 16:35:00,
2013-03-03 11:40:00,37.8,17.2,29.82,NW,315,4.0,8.9,43,0.00,,,0.00,WUHU216HW,2013-03-03 16:40:00,
2013-03-03 11:45:00,37.8,17.2,29.82,SW,225,6.7,7.2,43,0.00,,,0.00,WUHU216HW,2013-03-03 16:45:00,
2013-03-03 11:50:00,37.8,18.3,29.82,NW,315,3.8,8.3,45,0.00,,,0.00,WUHU216HW,2013-03-03 16:50:00,
2013-03-03 11:55:00,38.3,18.2,29.82,NNE,23,1.1,8.3,44,0.00,,,0.00,WUHU216HW,2013-03-03 16:55:00,
2013-03-03 12:00:00,38.9,18.2,29.82,SW,225,4.0,8.1,43,0.00,,,0.00,WUHU216HW,2013-03-03 17:00:00,
2013-03-03 12:05:00,38.9,18.2,29.82,NW,315,4.9,9.6,43,0.00,,,0.00,WUHU216HW,2013-03-03 17:05:00,
2013-03-03 12:10:00,38.9,17.6,29.82,WSW,248,6.0,9.6,42,0.00,,,0.00,WUHU216HW,2013-03-03 17:10:00,
2013-03-03 12:15:00,39.1,17.8,29.82,WNW,293,3.8,12.3,42,0.00,,,0.00,WUHU216HW,2013-03-03 17:15:00,
2013-03-03 12:20:00,39.4,17.7,29.82,NNW,338,3.4,12.3,41,0.00,,,0.00,WUHU216HW,2013-03-03 17:20:00,
2013-03-03 12:25:00,40.1,18.8,29.81,NNW,338,6.7,8.1,42,0.00,,,0.00,WUHU216HW,2013-03-03 17:25:00,
2013-03-03 12:30:00,40.7,19.3,29.81,SW,225,2.0,9.8,42,0.00,,,0.00,WUHU216HW,2013-03-03 17:30:00,
2013-03-03 12:35:00,41.0,17.9,29.81,NNW,338,4.0,11.2,39,0.00,,,0.00,WUHU216HW,2013-03-03 17:35:00,
2013-03-03 12:40:00,41.2,18.7,29.80,NNE,23,5.4,11.2,40,0.00,,,0.00,WUHU216HW,2013-03-03 17:40:00,
2013-03-03 12:45:00,41.0,17.3,29.80,North,0,5.1,12.5,38,0.00,,,0.00,WUHU216HW,2013-03-03 17:45:00,
2013-03-03 12:50:00,40.5,16.7,29.80,NE,45,2.2,12.5,38,0.00,,,0.00,WUHU216HW,2013-03-03 17:50:00,
2013-03-03 12:55:00,40.7,16.9,29.80,ENE,68,6.0,11.2,38,0.00,,,0.00,WUHU216HW,2013-03-03 17:55:00,
2013-03-03 13:00:00,41.0,17.9,29.80,ENE,68,3.1,10.7,39,0.00,,,0.00,WUHU216HW,2013-03-03 18:00:00,
2013-03-03 13:06:00,41.4,17.6,29.79,ENE,68,2.0,8.5,38,0.00,,,0.00,WUHU216HW,2013-03-03 18:06:00,
2013-03-03 13:10:00,41.9,18.7,29.79,NNW,338,3.6,8.5,39,0.00,,,0.00,WUHU216HW,2013-03-03 18:10:00,
2013-03-03 13:15:00,41.6,17.7,29.78,NNW,338,2.7,10.3,38,0.00,,,0.00,WUHU216HW,2013-03-03 18:15:00,
2013-03-03 13:20:00,41.4,18.2,29.79,NE,45,3.4,13.0,39,0.00,,,0.00,WUHU216HW,2013-03-03 18:20:00,
2013-03-03 13:26:00,41.4,18.2,29.79,SW,225,2.9,13.0,39,0.00,,,0.00,WUHU216HW,2013-03-03 18:26:00,
2013-03-03 13:31:00,42.3,19.0,29.78,North,0,1.8,9.8,39,0.00,,,0.00,WUHU216HW,2013-03-03 18:31:00,
2013-03-03 13:36:00,42.5,19.2,29.78,NNE,23,2.2,9.8,39,0.00,,,0.00,WUHU216HW,2013-03-03 18:36:00,
2013-03-03 13:41:00,43.2,19.8,29.78,ENE,68,1.1,8.3,39,0.00,,,0.00,WUHU216HW,2013-03-03 18:41:00,
2013-03-03 13:46:00,43.6,20.2,29.78,East,90,0.9,6.7,39,0.00,,,0.00,WUHU216HW,2013-03-03 18:46:00,
2013-03-03 13:51:00,43.6,19.4,29.78,East,90,4.5,6.7,38,0.00,,,0.00,WUHU216HW,2013-03-03 18:51:00,
2013-03-03 13:56:00,43.6,18.8,29.78,North,0,2.0,6.7,37,0.00,,,0.00,WUHU216HW,2013-03-03 18:56:00,
2013-03-03 14:01:00,43.6,19.4,29.78,NNW,338,1.8,8.3,38,0.00,,,0.00,WUHU216HW,2013-03-03 19:01:00,
2013-03-03 14:06:00,43.6,19.4,29.78,NNE,23,5.6,8.3,38,0.00,,,0.00,WUHU216HW,2013-03-03 19:06:00,
2013-03-03 14:11:00,42.5,17.8,29.78,NE,45,0.9,12.8,37,0.00,,,0.00,WUHU216HW,2013-03-03 19:11:00,
2013-03-03 14:16:00,42.3,18.4,29.78,North,0,2.9,12.8,38,0.00,,,0.00,WUHU216HW,2013-03-03 19:16:00,
2013-03-03 14:21:00,42.8,19.5,29.78,North,0,2.5,11.2,39,0.00,,,0.00,WUHU216HW,2013-03-03 19:21:00,
2013-03-03 14:26:00,42.7,18.6,29.78,ENE,68,1.3,13.0,38,0.00,,,0.00,WUHU216HW,2013-03-03 19:26:00,
2013-03-03 14:31:00,42.1,18.2,29.78,NNE,23,5.4,14.8,38,0.00,,,0.00,WUHU216HW,2013-03-03 19:31:00,
2013-03-03 14:36:00,42.7,19.4,29.77,NE,45,4.5,14.8,39,0.00,,,0.00,WUHU216HW,2013-03-03 19:36:00,
2013-03-03 14:41:00,42.8,18.8,29.77,North,0,8.1,12.5,38,0.00,,,0.00,WUHU216HW,2013-03-03 19:41:00,
2013-03-03 14:46:00,42.5,18.6,29.78,NNW,338,2.5,12.5,38,0.00,,,0.00,WUHU216HW,2013-03-03 19:46:00,
2013-03-03 14:51:00,43.2,19.8,29.78,ENE,68,2.5,10.7,39,0.00,,,0.00,WUHU216HW,2013-03-03 19:51:00,
2013-03-03 14:56:00,43.7,19.6,29.78,East,90,1.1,6.9,38,0.00,,,0.00,WUHU216HW,2013-03-03 19:56:00,
2013-03-03 15:01:00,44.5,20.3,29.78,NE,45,7.6,7.6,38,0.00,,,0.00,WUHU216HW,2013-03-03 20:01:00,
2013-03-03 15:06:00,43.6,19.4,29.79,WNW,293,1.1,10.3,38,0.00,,,0.00,WUHU216HW,2013-03-03 20:06:00,
2013-03-03 15:11:00,43.9,19.2,29.79,North,0,5.1,10.3,37,0.00,,,0.00,WUHU216HW,2013-03-03 20:11:00,
2013-03-03 15:16:00,43.4,18.6,29.79,WSW,248,1.1,8.3,37,0.00,,,0.00,WUHU216HW,2013-03-03 20:16:00,
2013-03-03 15:21:00,43.6,20.2,29.79,ENE,68,3.4,8.3,39,0.00,,,0.00,WUHU216HW,2013-03-03 20:21:00,
2013-03-03 15:26:00,43.7,19.0,29.79,NNE,23,2.7,7.4,37,0.00,,,0.00,WUHU216HW,2013-03-03 20:26:00,
2013-03-03 15:31:00,43.9,19.8,29.79,NNW,338,3.1,6.7,38,0.00,,,0.00,WUHU216HW,2013-03-03 20:31:00,
2013-03-03 15:36:00,44.8,20.6,29.78,NW,315,3.1,6.5,38,0.00,,,0.00,WUHU216HW,2013-03-03 20:36:00,
2013-03-03 15:41:00,44.8,20.0,29.79,ENE,68,4.3,5.1,37,0.00,,,0.00,WUHU216HW,2013-03-03 20:41:00,
2013-03-03 15:46:00,44.8,20.0,29.78,NNW,338,2.5,5.4,37,0.00,,,0.00,WUHU216HW,2013-03-03 20:46:00,
2013-03-03 15:51:00,45.0,20.1,29.78,NE,45,1.6,6.0,37,0.00,,,0.00,WUHU216HW,2013-03-03 20:51:00,
2013-03-03 15:56:00,45.0,20.1,29.78,WNW,293,2.5,6.7,37,0.00,,,0.00,WUHU216HW,2013-03-03 20:56:00,
2013-03-03 16:01:00,45.2,20.3,29.78,NNE,23,0.4,6.7,37,0.00,,,0.00,WUHU216HW,2013-03-03 21:01:00,
2013-03-03 16:06:00,45.0,19.4,29.78,ENE,68,4.0,8.5,36,0.00,,,0.00,WUHU216HW,2013-03-03 21:06:00,
2013-03-03 16:11:00,44.8,20.0,29.79,NNW,338,3.4,8.5,37,0.00,,,0.00,WUHU216HW,2013-03-03 21:11:00,
2013-03-03 16:16:00,44.5,19.6,29.78,West,270,1.6,6.9,37,0.00,,,0.00,WUHU216HW,2013-03-03 21:16:00,
2013-03-03 16:21:00,45.0,20.8,29.78,NNW,338,2.5,6.9,38,0.00,,,0.00,WUHU216HW,2013-03-03 21:21:00,
2013-03-03 16:26:00,44.8,20.0,29.78,WNW,293,2.5,6.5,37,0.00,,,0.00,WUHU216HW,2013-03-03 21:26:00,
2013-03-03 16:31:00,44.8,20.0,29.78,NNE,23,2.0,6.9,37,0.00,,,0.00,WUHU216HW,2013-03-03 21:31:00,
2013-03-03 16:36:00,44.3,19.4,29.79,NNW,338,0.9,6.9,37,0.00,,,0.00,WUHU216HW,2013-03-03 21:36:00,
2013-03-03 16:41:00,44.5,19.6,29.79,North,0,5.4,9.8,37,0.00,,,0.00,WUHU216HW,2013-03-03 21:41:00,
2013-03-03 16:46:00,43.7,19.0,29.78,North,0,3.8,9.8,37,0.00,,,0.00,WUHU216HW,2013-03-03 21:46:00,
2013-03-03 16:51:00,43.6,19.4,29.78,NNE,23,4.0,8.3,38,0.00,,,0.00,WUHU216HW,2013-03-03 21:51:00,
2013-03-03 16:56:00,43.4,19.4,29.78,NNE,23,5.1,7.6,38,0.00,,,0.00,WUHU216HW,2013-03-03 21:56:00,
2013-03-03 17:01:00,43.2,19.2,29.78,NE,45,2.2,7.6,38,0.00,,,0.00,WUHU216HW,2013-03-03 22:01:00,
2013-03-03 17:06:00,43.2,19.2,29.78,NE,45,2.9,5.1,38,0.00,,,0.00,WUHU216HW,2013-03-03 22:06:00,
2013-03-03 17:11:00,43.0,19.0,29.78,NNE,23,2.9,5.4,38,0.00,,,0.00,WUHU216HW,2013-03-03 22:11:00,
2013-03-03 17:16:00,42.7,18.6,29.78,NNE,23,3.4,7.6,38,0.00,,,0.00,WUHU216HW,2013-03-03 22:16:00,
2013-03-03 17:21:00,42.3,18.4,29.78,North,0,3.4,7.6,38,0.00,,,0.00,WUHU216HW,2013-03-03 22:21:00,
2013-03-03 17:26:00,41.8,18.6,29.79,NE,45,5.8,9.8,39,0.00,,,0.00,WUHU216HW,2013-03-03 22:26:00,
2013-03-03 17:31:00,41.4,18.2,29.79,North,0,6.3,9.8,39,0.00,,,0.00,WUHU216HW,2013-03-03 22:31:00,
2013-03-03 17:36:00,40.9,18.4,29.79,NNE,23,6.9,9.8,40,0.00,,,0.00,WUHU216HW,2013-03-03 22:36:00,
2013-03-03 17:41:00,40.7,18.2,29.79,NNW,338,4.9,9.4,40,0.00,,,0.00,WUHU216HW,2013-03-03 22:41:00,
2013-03-03 17:46:00,40.5,18.5,29.79,NE,45,2.2,9.2,41,0.00,,,0.00,WUHU216HW,2013-03-03 22:46:00,
2013-03-03 17:51:00,40.1,17.7,29.80,North,0,6.3,7.6,40,0.00,,,0.00,WUHU216HW,2013-03-03 22:51:00,
2013-03-03 17:56:00,39.6,17.7,29.80,North,0,7.4,8.3,41,0.00,,,0.00,WUHU216HW,2013-03-03 22:56:00,
2013-03-03 18:01:00,39.2,18.0,29.80,ENE,68,8.5,9.8,42,0.00,,,0.00,WUHU216HW,2013-03-03 23:01:00,
2013-03-03 18:06:00,38.9,17.6,29.80,North,0,3.6,9.8,42,0.00,,,0.00,WUHU216HW,2013-03-03 23:06:00,
2013-03-03 18:11:00,38.7,18.0,29.80,NE,45,2.5,8.5,43,0.00,,,0.00,WUHU216HW,2013-03-03 23:11:00,
2013-03-03 18:16:00,38.3,18.2,29.80,West,270,4.0,8.1,44,0.00,,,0.00,WUHU216HW,2013-03-03 23:16:00,
2013-03-03 18:21:00,37.8,17.7,29.80,NNE,23,4.0,7.8,44,0.00,,,0.00,WUHU216HW,2013-03-03 23:21:00,
2013-03-03 18:26:00,37.4,17.4,29.81,NE,45,3.6,8.1,44,0.00,,,0.00,WUHU216HW,2013-03-03 23:26:00,
2013-03-03 18:31:00,37.3,17.7,29.81,NNE,23,3.6,8.1,45,0.00,,,0.00,WUHU216HW,2013-03-03 23:31:00,
2013-03-03 18:36:00,36.9,17.5,29.81,NNW,338,3.4,5.4,45,0.00,,,0.00,WUHU216HW,2013-03-03 23:36:00,
2013-03-03 18:41:00,36.5,17.1,29.81,NE,45,7.4,7.4,45,0.00,,,0.00,WUHU216HW,2013-03-03 23:41:00,
2013-03-03 18:46:00,36.4,16.9,29.81,North,0,1.1,7.4,45,0.00,,,0.00,WUHU216HW,2013-03-03 23:46:00,
2013-03-03 18:51:00,36.0,17.1,29.81,NE,45,0.9,5.6,46,0.00,,,0.00,WUHU216HW,2013-03-03 23:51:00,
2013-03-03 18:56:00,35.6,16.8,29.81,NE,45,2.2,3.6,46,0.00,,,0.00,WUHU216HW,2013-03-03 23:56:00,
2013-03-03 19:01:00,35.5,17.2,29.81,NNE,23,3.1,5.6,47,0.00,,,0.00,WUHU216HW,2013-03-04 00:01:00,
2013-03-03 19:06:00,35.3,17.0,29.81,NE,45,2.7,5.6,47,0.00,,,0.00,WUHU216HW,2013-03-04 00:06:00,
2013-03-03 19:11:00,34.9,16.7,29.81,NE,45,3.4,5.4,47,0.00,,,0.00,WUHU216HW,2013-03-04 00:11:00,
2013-03-03 19:16:00,34.7,17.0,29.82,NNE,23,2.9,5.1,48,0.00,,,0.00,WUHU216HW,2013-03-04 00:16:00,
2013-03-03 19:21:00,34.4,16.7,29.82,NE,45,3.1,5.1,48,0.00,,,0.00,WUHU216HW,2013-03-04 00:21:00,
2013-03-03 19:26:00,34.2,16.9,29.82,NE,45,3.4,3.6,49,0.00,,,0.00,WUHU216HW,2013-03-04 00:26:00,
2013-03-03 19:31:00,34.0,16.7,29.82,NNE,23,1.6,3.8,49,0.00,,,0.00,WUHU216HW,2013-03-04 00:31:00,
2013-03-03 19:36:00,33.8,16.6,29.83,NE,45,2.9,4.0,49,0.00,,,0.00,WUHU216HW,2013-03-04 00:36:00,
2013-03-03 19:41:00,33.7,16.9,29.83,North,0,1.6,4.0,50,0.00,,,0.00,WUHU216HW,2013-03-04 00:41:00,
2013-03-03 19:46:00,33.5,16.7,29.83,NNE,23,1.3,5.8,50,0.00,,,0.00,WUHU216HW,2013-03-04 00:46:00,
2013-03-03 19:51:00,33.3,16.7,29.83,NE,45,0.4,5.8,50,0.00,,,0.00,WUHU216HW,2013-03-04 00:51:00,
2013-03-03 19:56:00,33.1,16.9,29.83,North,0,0.2,2.5,51,0.00,,,0.00,WUHU216HW,2013-03-04 00:56:00,
2013-03-03 20:01:00,32.9,16.8,29.83,NNE,23,2.5,4.0,51,0.00,,,0.00,WUHU216HW,2013-03-04 01:01:00,
2013-03-03 20:06:00,32.8,16.6,29.83,NNE,23,1.1,4.0,51,0.00,,,0.00,WUHU216HW,2013-03-04 01:06:00,
2013-03-03 20:11:00,32.8,16.6,29.83,NNE,23,1.8,2.5,51,0.00,,,0.00,WUHU216HW,2013-03-04 01:11:00,
2013-03-03 20:16:00,32.6,16.8,29.83,NNE,23,0.4,3.4,52,0.00,,,0.00,WUHU216HW,2013-03-04 01:16:00,
2013-03-03 20:21:00,32.4,16.7,29.83,NNE,23,0.4,3.4,52,0.00,,,0.00,WUHU216HW,2013-03-04 01:21:00,
2013-03-03 20:26:00,32.2,16.5,29.83,North,0,0.4,2.5,52,0.00,,,0.00,WUHU216HW,2013-03-04 01:26:00,
2013-03-03 20:31:00,32.0,16.4,29.84,NNE,23,0.2,2.2,52,0.00,,,0.00,WUHU216HW,2013-03-04 01:31:00,
2013-03-03 20:36:00,32.0,16.4,29.84,NNE,23,0.4,2.2,52,0.00,,,0.00,WUHU216HW,2013-03-04 01:36:00,
2013-03-03 20:41:00,31.7,16.0,29.84,NE,45,0.0,1.1,52,0.00,,,0.00,WUHU216HW,2013-03-04 01:41:00,
2013-03-03 20:46:00,31.3,15.7,29.84,NE,45,0.2,1.1,52,0.00,,,0.00,WUHU216HW,2013-03-04 01:46:00,
2013-03-03 20:51:00,31.1,15.5,29.85,NE,45,0.4,0.4,52,0.00,,,0.00,WUHU216HW,2013-03-04 01:51:00,
2013-03-03 20:56:00,31.0,15.4,29.85,NE,45,0.7,0.7,52,0.00,,,0.00,WUHU216HW,2013-03-04 01:56:00,
2013-03-03 21:01:00,30.8,15.2,29.85,NE,45,0.2,0.7,52,0.00,,,0.00,WUHU216HW,2013-03-04 02:01:00,
2013-03-03 21:06:00,30.6,15.5,29.85,NE,45,0.4,0.7,53,0.00,,,0.00,WUHU216HW,2013-03-04 02:06:00,
2013-03-03 21:11:00,30.6,15.8,29.85,NNE,23,0.2,1.3,54,0.00,,,0.00,WUHU216HW,2013-03-04 02:11:00,
2013-03-03 21:16:00,30.6,15.8,29.85,ENE,68,1.6,1.6,54,0.00,,,0.00,WUHU216HW,2013-03-04 02:16:00,
2013-03-03 21:21:00,30.6,15.8,29.85,NE,45,1.1,2.0,54,0.00,,,0.00,WUHU216HW,2013-03-04 02:21:00,
2013-03-03 21:26:00,30.8,16.5,29.86,NNE,23,1.3,2.9,55,0.00,,,0.00,WUHU216HW,2013-03-04 02:26:00,
2013-03-03 21:31:00,31.0,16.7,29.86,NNW,338,2.5,4.3,55,0.00,,,0.00,WUHU216HW,2013-03-04 02:31:00,
2013-03-03 21:36:00,31.1,16.4,29.86,NNE,23,2.5,4.3,54,0.00,,,0.00,WUHU216HW,2013-03-04 02:36:00,
2013-03-03 21:41:00,31.1,16.4,29.87,NW,315,1.3,4.5,54,0.00,,,0.00,WUHU216HW,2013-03-04 02:41:00,
2013-03-03 21:46:00,31.1,16.4,29.87,NE,45,2.2,4.5,54,0.00,,,0.00,WUHU216HW,2013-03-04 02:46:00,
2013-03-03 21:51:00,31.1,16.4,29.87,North,0,0.7,5.4,54,0.00,,,0.00,WUHU216HW,2013-03-04 02:51:00,
2013-03-03 21:56:00,31.1,16.4,29.87,North,0,2.9,5.6,54,0.00,,,0.00,WUHU216HW,2013-03-04 02:56:00,
2013-03-03 22:01:00,31.3,16.6,29.86,North,0,0.7,5.6,54,0.00,,,0.00,WUHU216HW,2013-03-04 03:01:00,
2013-03-03 22:06:00,31.1,16.4,29.86,North,0,3.4,4.9,54,0.00,,,0.00,WUHU216HW,2013-03-04 03:06:00,
2013-03-03 22:11:00,31.1,16.4,29.86,NNE,23,3.4,4.5,54,0.00,,,0.00,WUHU216HW,2013-03-04 03:11:00,
2013-03-03 22:16:00,31.1,16.4,29.86,North,0,2.7,4.5,54,0.00,,,0.00,WUHU216HW,2013-03-04 03:16:00,
2013-03-03 22:21:00,31.3,16.6,29.86,NE,45,3.4,5.8,54,0.00,,,0.00,WUHU216HW,2013-03-04 03:21:00,
2013-03-03 22:26:00,31.3,16.1,29.86,North,0,2.2,5.8,53,0.00,,,0.00,WUHU216HW,2013-03-04 03:26:00,
2013-03-03 22:31:00,31.3,16.1,29.86,NNW,338,6.5,6.5,53,0.00,,,0.00,WUHU216HW,2013-03-04 03:31:00,
2013-03-03 22:36:00,31.5,16.3,29.86,NNE,23,9.8,9.8,53,0.00,,,0.00,WUHU216HW,2013-03-04 03:36:00,
2013-03-03 22:41:00,31.7,16.0,29.86,NNW,338,4.0,16.3,52,0.00,,,0.00,WUHU216HW,2013-03-04 03:41:00,
2013-03-03 22:46:00,31.9,16.2,29.87,North,0,1.6,16.3,52,0.00,,,0.00,WUHU216HW,2013-03-04 03:46:00,
2013-03-03 22:51:00,31.9,16.2,29.87,NNE,23,4.0,15.7,52,0.00,,,0.00,WUHU216HW,2013-03-04 03:51:00,
2013-03-03 22:56:00,31.7,16.0,29.88,NNE,23,5.4,9.8,52,0.00,,,0.00,WUHU216HW,2013-03-04 03:56:00,
2013-03-03 23:01:00,31.9,16.2,29.88,NE,45,7.4,9.8,52,0.00,,,0.00,WUHU216HW,2013-03-04 04:01:00,
2013-03-03 23:06:00,31.7,16.0,29.87,North,0,2.5,8.7,52,0.00,,,0.00,WUHU216HW,2013-03-04 04:06:00,
2013-03-03 23:11:00,31.5,15.8,29.88,NW,315,0.9,7.4,52,0.00,,,0.00,WUHU216HW,2013-03-04 04:11:00,
2013-03-03 23:16:00,31.3,15.7,29.88,NNW,338,2.5,4.7,52,0.00,,,0.00,WUHU216HW,2013-03-04 04:16:00,
2013-03-03 23:21:00,31.3,15.7,29.87,West,270,3.8,5.4,52,0.00,,,0.00,WUHU216HW,2013-03-04 04:21:00,
2013-03-03 23:26:00,31.1,15.5,29.87,WNW,293,0.4,5.4,52,0.00,,,0.00,WUHU216HW,2013-03-04 04:26:00,
2013-03-03 23:31:00,31.0,15.4,29.87,WSW,248,2.2,3.8,52,0.00,,,0.00,WUHU216HW,2013-03-04 04:31:00,
2013-03-03 23:36:00,31.0,15.4,29.88,North,0,0.4,2.5,52,0.00,,,0.00,WUHU216HW,2013-03-04 04:36:00,
2013-03-03 23:41:00,30.8,15.2,29.88,North,0,4.5,4.5,52,0.00,,,0.00,WUHU216HW,2013-03-04 04:41:00,
2013-03-03 23:46:00,30.6,15.0,29.88,NNE,23,1.3,4.5,52,0.00,,,0.00,WUHU216HW,2013-03-04 04:46:00,
2013-03-03 23:51:00,30.6,15.0,29.88,West,270,0.9,4.5,52,0.00,,,0.00,WUHU216HW,2013-03-04 04:51:00,
2013-03-03 23:56:00,30.4,15.3,29.88,NNW,338,1.8,2.7,53,0.00,,,0.00,WUHU216HW,2013-03-04 04:56:00,